Time;durP1;ratioP1;P1;durP2;ratioP2;P2;SDS_P1;SDS_P2;PMS_P1;PMS_P2;Temp;Humidity;BMP_temperature;BMP_pressure;BME280_temperature;BME280_humidity;BME280_pressure;Samples;Min_cycle;Max_cycle;Signal;HPM_P1;HPM_P2
2022/01/17 00:00:57;;;;;;;13.73;2.40;;;6.10;99.90;;;;;;4994687;28;20055;-42
2022/01/17 00:03:24;;;;;;;26.35;3.58;;;6.10;99.90;;;;;;4994858;28;20137;-42
2022/01/17 00:05:51;;;;;;;22.80;2.60;;;6.10;99.90;;;;;;4993668;28;20085;-42
2022/01/17 00:08:18;;;;;;;18.90;2.42;;;6.10;99.90;;;;;;4994298;28;20058;-42
2022/01/17 00:10:45;;;;;;;20.85;2.90;;;6.00;99.90;;;;;;4995532;28;20134;-42
2022/01/17 00:13:22;;;;;;;22.58;2.90;;;6.00;99.90;;;;;;4993348;28;20104;-42
2022/01/17 00:15:52;;;;;;;25.58;2.90;;;6.00;99.90;;;;;;4993629;28;20042;-42
2022/01/17 00:18:29;;;;;;;17.20;2.10;;;6.00;99.90;;;;;;4994021;28;20135;-43
2022/01/17 00:20:57;;;;;;;20.75;2.38;;;6.00;99.90;;;;;;4988788;28;20059;-42
2022/01/17 00:23:24;;;;;;;21.83;2.67;;;5.90;99.90;;;;;;4993723;28;20398;-42
2022/01/17 00:25:51;;;;;;;21.17;2.88;;;5.90;99.90;;;;;;4994001;28;20058;-41
2022/01/17 00:28:19;;;;;;;22.60;2.63;;;5.90;99.90;;;;;;4994300;28;20058;-42
2022/01/17 00:30:45;;;;;;;27.33;3.15;;;5.90;99.90;;;;;;4993548;28;20068;-41
2022/01/17 00:33:12;;;;;;;22.60;3.00;;;5.90;99.90;;;;;;4993819;28;20129;-41
2022/01/17 00:35:39;;;;;;;25.55;2.90;;;5.90;99.90;;;;;;4994908;28;20472;-42
2022/01/17 00:38:06;;;;;;;22.60;2.53;;;5.90;99.90;;;;;;4987475;28;20055;-41
2022/01/17 00:40:33;;;;;;;21.40;2.58;;;5.80;99.90;;;;;;4993068;28;20065;-41
2022/01/17 00:42:59;;;;;;;32.22;2.95;;;5.80;99.90;;;;;;4994931;28;20043;-41
2022/01/17 00:45:27;;;;;;;25.40;3.30;;;5.80;99.90;;;;;;4993923;28;20137;-41
2022/01/17 00:47:55;;;;;;;26.15;3.65;;;5.70;99.90;;;;;;4993468;28;20057;-40
2022/01/17 00:50:22;;;;;;;22.25;2.50;;;5.70;99.90;;;;;;4994181;28;20046;-41
2022/01/17 00:52:48;;;;;;;20.17;2.70;;;5.70;99.90;;;;;;4994717;28;20042;-41
2022/01/17 00:55:15;;;;;;;21.27;2.60;;;5.60;99.90;;;;;;4994023;28;20054;-41
2022/01/17 00:57:42;;;;;;;27.30;3.67;;;5.70;99.90;;;;;;4995228;28;20472;-42
2022/01/17 01:00:09;;;;;;;18.48;2.75;;;5.60;99.90;;;;;;4993381;28;20115;-41
2022/01/17 01:02:37;;;;;;;26.92;2.97;;;5.60;99.90;;;;;;4994742;28;20554;-42
2022/01/17 01:05:05;;;;;;;27.27;3.90;;;5.60;99.90;;;;;;4992942;28;20064;-41
2022/01/17 01:07:31;;;;;;;20.05;2.88;;;5.70;99.90;;;;;;4994459;28;20130;-43
2022/01/17 01:10:03;;;;;;;24.42;3.80;;;5.60;99.90;;;;;;4993346;28;20054;-42
2022/01/17 01:12:30;;;;;;;;;;;5.70;99.90;;;;;;4995223;28;20049;-43
2022/01/17 01:14:56;;;;;;;25.83;3.22;;;5.70;99.90;;;;;;5009609;28;19921;-41
2022/01/17 01:17:33;;;;;;;23.83;3.15;;;5.60;99.90;;;;;;4987943;28;20129;-41
2022/01/17 01:20:13;;;;;;;25.10;3.75;;;5.60;99.90;;;;;;4994402;28;20047;-41
2022/01/17 01:28:08;;;;;;;16.85;2.70;;;5.50;99.90;;;;;;4993086;28;20050;-41
2022/01/17 01:30:40;;;;;;;17.52;3.50;;;5.40;99.90;;;;;;4994523;28;20057;-41
2022/01/17 01:33:06;;;;;;;;;;;5.40;99.90;;;;;;4992665;28;20450;-41
2022/01/17 01:35:43;;;;;;;26.42;3.70;;;5.40;99.90;;;;;;4992980;28;19930;-41
2022/01/17 01:38:09;;;;;;;19.30;2.67;;;5.30;99.90;;;;;;4989190;28;20050;-42
2022/01/17 01:40:36;;;;;;;26.35;2.92;;;5.30;99.90;;;;;;4985518;28;20129;-41
2022/01/17 01:43:03;;;;;;;27.23;3.47;;;5.30;99.90;;;;;;4992696;28;20085;-41
2022/01/17 01:45:30;;;;;;;18.98;3.00;;;5.30;99.90;;;;;;4992163;28;20519;-41
2022/01/17 01:47:56;;;;;;;26.65;4.13;;;5.30;99.90;;;;;;4992679;28;20059;-41
2022/01/17 01:50:23;;;;;;;19.00;2.58;;;5.30;99.90;;;;;;4992458;28;20050;-41
2022/01/17 01:52:51;;;;;;;23.98;3.15;;;5.30;99.90;;;;;;4992595;28;20049;-40
2022/01/17 01:55:21;;;;;;;24.77;3.67;;;5.30;99.90;;;;;;4993488;28;20474;-41
2022/01/17 01:57:47;;;;;;;26.30;3.03;;;5.20;99.90;;;;;;4989360;28;20450;-41
2022/01/17 02:00:15;;;;;;;23.48;3.10;;;5.20;99.90;;;;;;4992638;28;20064;-41
2022/01/17 02:02:42;;;;;;;28.98;3.13;;;5.20;99.90;;;;;;4992107;28;20053;-43
2022/01/17 02:05:09;;;;;;;24.88;3.17;;;5.20;99.90;;;;;;4992184;28;20146;-42
2022/01/17 02:07:36;;;;;;;23.17;3.13;;;5.30;99.90;;;;;;4992686;28;20127;-42
2022/01/17 02:10:06;;;;;;;37.97;3.67;;;5.20;99.90;;;;;;4993116;28;20054;-42
2022/01/17 02:12:32;;;;;;;30.88;2.75;;;5.20;99.90;;;;;;4993147;28;20054;-41
2022/01/17 02:14:59;;;;;;;29.73;3.47;;;5.20;99.90;;;;;;4993167;28;20046;-42
2022/01/17 02:17:27;;;;;;;31.17;3.10;;;5.20;99.90;;;;;;4992291;28;20051;-40
2022/01/17 02:20:03;;;;;;;31.33;3.90;;;5.20;99.90;;;;;;4992293;28;20104;-40
2022/01/17 02:22:30;;;;;;;24.15;3.58;;;5.20;99.90;;;;;;4992034;28;20064;-41
2022/01/17 02:24:57;;;;;;;25.38;2.70;;;5.20;99.90;;;;;;4991615;28;20482;-40
2022/01/17 02:27:23;;;;;;;25.90;2.97;;;5.20;99.90;;;;;;4991879;28;20046;-41
2022/01/17 02:29:50;;;;;;;16.67;2.70;;;5.20;99.90;;;;;;4992816;28;20054;-40
2022/01/17 02:32:17;;;;;;;20.35;3.13;;;5.20;99.90;;;;;;4991961;28;20047;-41
2022/01/17 02:34:44;;;;;;;20.33;3.22;;;5.20;99.90;;;;;;4991709;28;20557;-40
2022/01/17 02:37:12;;;;;;;24.35;4.00;;;5.10;99.90;;;;;;4992657;28;20050;-40
2022/01/17 02:39:38;;;;;;;26.50;3.28;;;5.10;99.90;;;;;;4992231;28;20402;-41
2022/01/17 02:42:06;;;;;;;22.67;2.85;;;5.10;99.90;;;;;;4991792;28;20121;-40
2022/01/17 02:44:32;;;;;;;26.10;3.72;;;5.10;99.90;;;;;;4991954;28;20092;-41
2022/01/17 02:47:02;;;;;;;28.50;3.20;;;5.10;99.90;;;;;;4992201;28;20121;-41
2022/01/17 02:49:28;;;;;;;25.98;2.70;;;5.00;99.90;;;;;;4991214;28;20084;-41
2022/01/17 02:51:55;;;;;;;26.52;3.17;;;5.00;99.90;;;;;;4991299;28;20066;-40
2022/01/17 02:54:23;;;;;;;17.73;2.35;;;5.00;99.90;;;;;;4991977;28;20053;-41
2022/01/17 02:56:50;;;;;;;29.95;3.15;;;4.90;99.90;;;;;;4991416;28;20056;-41
2022/01/17 02:59:16;;;;;;;24.10;2.83;;;5.00;99.90;;;;;;4992223;28;20042;-41
2022/01/17 03:01:43;;;;;;;29.20;2.97;;;4.90;99.90;;;;;;4991281;28;20061;-42
2022/01/17 03:04:10;;;;;;;22.23;3.63;;;4.90;99.90;;;;;;4992360;28;20052;-41
2022/01/17 03:06:37;;;;;;;28.33;3.67;;;4.90;99.90;;;;;;4992263;28;20426;-41
2022/01/17 03:09:03;;;;;;;24.98;2.83;;;4.90;99.90;;;;;;4991328;28;20483;-40
2022/01/17 03:11:31;;;;;;;19.02;2.75;;;4.80;99.90;;;;;;4991493;28;20060;-40
2022/01/17 03:13:59;;;;;;;27.75;3.65;;;4.80;99.90;;;;;;4991665;28;20088;-42
2022/01/17 03:16:30;;;;;;;16.83;2.75;;;4.80;99.90;;;;;;4991320;28;20054;-40
2022/01/17 03:18:57;;;;;;;22.52;2.90;;;4.80;99.90;;;;;;4991753;28;20054;-40
2022/01/17 03:21:25;;;;;;;22.85;2.97;;;4.80;99.90;;;;;;4992359;28;20117;-40
2022/01/17 03:23:53;;;;;;;22.55;3.30;;;4.80;99.90;;;;;;4992244;28;20054;-40
2022/01/17 03:26:19;;;;;;;30.23;3.08;;;4.80;99.90;;;;;;4990992;28;20077;-40
2022/01/17 03:28:47;;;;;;;28.38;3.05;;;4.80;99.90;;;;;;4992548;28;20114;-41
2022/01/17 03:31:14;;;;;;;20.35;2.63;;;4.80;99.90;;;;;;4990578;28;20533;-40
2022/01/17 03:33:41;;;;;;;27.05;3.00;;;4.80;99.90;;;;;;4991304;28;20052;-40
2022/01/17 03:36:08;;;;;;;28.27;3.00;;;4.80;99.90;;;;;;4992068;28;20430;-41
2022/01/17 03:38:35;;;;;;;16.15;2.40;;;4.80;99.90;;;;;;4991067;28;20122;-40
2022/01/17 03:41:02;;;;;;;17.25;3.30;;;4.90;99.90;;;;;;4990981;28;20394;-40
2022/01/17 03:43:29;;;;;;;22.02;2.67;;;4.80;99.90;;;;;;4992276;28;20054;-40
2022/01/17 03:45:58;;;;;;;25.48;3.38;;;4.80;99.90;;;;;;4991977;28;20054;-40
2022/01/17 03:48:25;;;;;;;21.38;2.42;;;4.90;99.90;;;;;;4990903;28;20061;-40
2022/01/17 03:50:51;;;;;;;26.95;2.80;;;4.90;99.90;;;;;;4991631;28;20411;-40
2022/01/17 03:53:18;;;;;;;23.35;3.40;;;4.90;99.90;;;;;;4991975;28;20125;-40
2022/01/17 03:55:45;;;;;;;26.02;3.55;;;4.90;99.90;;;;;;4992643;28;20482;-41
2022/01/17 03:58:11;;;;;;;21.52;3.30;;;4.90;99.90;;;;;;4994099;28;20054;-41
2022/01/17 04:00:41;;;;;;;21.63;3.55;;;5.00;99.90;;;;;;4996014;28;20053;-40
2022/01/17 04:03:09;;;;;;;14.57;2.40;;;5.00;99.90;;;;;;4995105;28;20402;-40
2022/01/17 04:05:36;;;;;;;19.85;3.08;;;5.00;99.90;;;;;;4995202;28;20054;-41
2022/01/17 04:08:03;;;;;;;20.73;3.47;;;5.00;99.90;;;;;;4994095;28;20060;-42
2022/01/17 04:10:29;;;;;;;21.77;3.15;;;5.00;99.90;;;;;;4994261;28;20050;-41
2022/01/17 04:13:01;;;;;;;18.08;3.03;;;5.00;99.90;;;;;;4994726;28;20069;-40
2022/01/17 04:15:28;;;;;;;22.13;3.08;;;5.00;99.90;;;;;;4991083;28;20054;-41
2022/01/17 04:17:55;;;;;;;21.00;2.60;;;5.10;99.90;;;;;;5007460;28;20055;-40
2022/01/17 04:20:27;;;;;;;16.58;2.83;;;5.10;99.90;;;;;;4994877;28;20232;-41
2022/01/17 04:22:54;;;;;;;19.50;3.10;;;5.00;99.90;;;;;;4994769;28;20047;-40
2022/01/17 04:25:21;;;;;;;25.58;3.22;;;5.00;99.90;;;;;;4995148;28;20137;-41
2022/01/17 04:27:48;;;;;;;22.25;2.65;;;5.00;99.90;;;;;;4994735;28;20054;-40
2022/01/17 04:30:15;;;;;;;18.77;2.33;;;5.00;99.90;;;;;;4993299;28;20137;-42
2022/01/17 04:32:42;;;;;;;26.17;3.15;;;5.00;99.90;;;;;;4993820;28;20057;-41
2022/01/17 04:35:09;;;;;;;30.17;3.35;;;5.00;99.90;;;;;;4993705;28;20517;-40
2022/01/17 04:37:37;;;;;;;25.75;2.78;;;5.00;99.90;;;;;;4993215;28;20050;-40
2022/01/17 04:40:05;;;;;;;22.05;2.85;;;5.00;99.90;;;;;;4994086;28;20142;-40
2022/01/17 04:42:32;;;;;;;25.83;2.97;;;5.00;99.90;;;;;;4993527;28;20560;-42
2022/01/17 04:45:13;;;;;;;22.73;2.40;;;5.00;99.90;;;;;;4994160;28;20086;-41
2022/01/17 04:47:41;;;;;;;27.65;3.78;;;5.00;99.90;;;;;;4994052;28;20104;-41
2022/01/17 04:50:08;;;;;;;25.20;2.75;;;5.00;99.90;;;;;;4993676;28;20056;-41
2022/01/17 04:52:36;;;;;;;22.17;2.90;;;5.10;99.90;;;;;;5006935;28;20038;-41
2022/01/17 04:55:03;;;;;;;22.25;2.55;;;5.00;99.90;;;;;;4989703;28;20108;-41
2022/01/17 04:57:30;;;;;;;24.60;3.33;;;5.10;99.90;;;;;;4990584;28;20050;-42
2022/01/17 04:59:57;;;;;;;24.42;2.55;;;5.10;99.90;;;;;;4991085;28;20138;-41
2022/01/17 05:02:23;;;;;;;18.83;2.80;;;5.10;99.90;;;;;;4992975;28;20527;-41
2022/01/17 05:04:51;;;;;;;24.92;3.47;;;5.20;99.90;;;;;;4995039;28;20050;-41
2022/01/17 05:07:17;;;;;;;20.80;2.92;;;5.20;99.90;;;;;;4992959;28;20061;-41
2022/01/17 05:09:46;;;;;;;24.25;3.03;;;5.20;99.90;;;;;;4992762;28;20465;-41
2022/01/17 05:12:13;;;;;;;24.30;3.30;;;5.30;99.90;;;;;;4994539;28;20411;-42
2022/01/17 05:14:42;;;;;;;18.17;2.65;;;5.30;99.90;;;;;;4992479;28;20541;-41
2022/01/17 05:17:23;;;;;;;22.58;3.17;;;5.30;99.90;;;;;;4992224;28;20056;-44
2022/01/17 05:19:53;;;;;;;28.77;3.45;;;5.40;99.90;;;;;;4992899;28;20097;-42
2022/01/17 05:22:20;;;;;;;27.10;3.33;;;5.50;99.90;;;;;;4993301;28;20383;-43
2022/01/17 05:24:48;;;;;;;23.63;2.88;;;5.50;99.90;;;;;;4988383;28;20050;-41
2022/01/17 05:27:15;;;;;;;27.48;2.85;;;5.50;99.90;;;;;;4992239;28;20057;-41
2022/01/17 05:29:42;;;;;;;23.05;3.00;;;5.50;99.90;;;;;;4986601;28;20046;-42
2022/01/17 05:32:08;;;;;;;22.95;2.80;;;5.50;99.90;;;;;;4993471;28;20054;-42
2022/01/17 05:34:40;;;;;;;19.40;3.30;;;5.60;99.90;;;;;;4990980;28;20407;-42
2022/01/17 05:37:07;;;;;;;22.48;3.55;;;5.60;99.90;;;;;;4992638;28;20053;-43
2022/01/17 05:39:33;;;;;;;22.73;3.58;;;5.60;99.90;;;;;;4990520;28;20054;-42
2022/01/17 05:42:01;;;;;;;27.05;3.53;;;5.60;99.90;;;;;;4993549;28;20421;-41
2022/01/17 05:44:28;;;;;;;24.52;3.30;;;5.60;99.90;;;;;;4992641;28;20046;-42
2022/01/17 05:46:55;;;;;;;23.33;3.67;;;5.70;99.90;;;;;;4992647;28;20078;-42
2022/01/17 05:49:22;;;;;;;30.45;4.57;;;5.70;99.90;;;;;;4992807;28;20084;-43
2022/01/17 05:51:48;;;;;;;26.80;3.45;;;5.70;99.90;;;;;;4991267;28;20049;-41
2022/01/17 05:54:15;;;;;;;25.77;3.90;;;5.80;99.90;;;;;;4992119;28;20061;-42
2022/01/17 05:56:42;;;;;;;19.67;3.65;;;5.80;99.90;;;;;;4991467;28;20058;-42
2022/01/17 05:59:10;;;;;;;22.02;3.75;;;5.80;99.90;;;;;;4992900;28;20054;-42
2022/01/17 06:01:39;;;;;;;24.55;3.70;;;5.80;99.90;;;;;;4992805;28;20436;-43
2022/01/17 06:04:05;;;;;;;21.92;4.55;;;5.80;99.90;;;;;;4991343;28;20058;-42
2022/01/17 06:06:32;;;;;;;30.33;5.50;;;5.90;99.90;;;;;;4991679;28;20056;-42
2022/01/17 06:08:59;;;;;;;29.35;4.47;;;5.90;99.90;;;;;;4992401;28;20064;-41
2022/01/17 06:11:26;;;;;;;26.55;5.05;;;5.90;99.90;;;;;;4993456;28;20058;-43
2022/01/17 06:13:52;;;;;;;26.38;4.22;;;5.90;99.90;;;;;;4988878;28;20050;-40
2022/01/17 06:16:20;;;;;;;27.70;5.00;;;5.90;99.90;;;;;;4987146;28;20137;-41
2022/01/17 06:18:47;;;;;;;23.58;4.68;;;5.90;99.90;;;;;;4961772;28;22360;-41
2022/01/17 06:21:14;;;;;;;26.08;4.57;;;5.90;99.90;;;;;;5005382;28;20061;-42
2022/01/17 06:23:40;;;;;;;25.27;4.90;;;6.00;99.90;;;;;;4986394;28;20050;-41
2022/01/17 06:26:07;;;;;;;20.15;4.57;;;6.00;99.90;;;;;;4992439;28;20425;-42
2022/01/17 06:28:34;;;;;;;25.40;5.20;;;6.00;99.90;;;;;;4992127;28;20042;-43
2022/01/17 06:31:00;;;;;;;27.55;4.63;;;6.00;99.90;;;;;;4990631;28;20046;-42
2022/01/17 06:33:28;;;;;;;25.63;5.10;;;6.10;99.90;;;;;;4991248;28;20058;-41
2022/01/17 06:35:55;;;;;;;25.05;5.45;;;6.10;99.90;;;;;;4988773;28;20156;-41
2022/01/17 06:38:22;;;;;;;26.05;6.53;;;6.10;99.90;;;;;;4991189;28;20046;-40
2022/01/17 06:40:48;;;;;;;32.08;5.95;;;6.10;99.90;;;;;;4991323;28;20431;-41
2022/01/17 06:43:15;;;;;;;32.40;5.57;;;6.10;99.90;;;;;;4990994;28;20038;-41
2022/01/17 06:45:43;;;;;;;30.90;6.43;;;6.10;99.90;;;;;;4985691;28;20052;-41
2022/01/17 06:48:09;;;;;;;25.60;5.72;;;6.10;99.90;;;;;;4991913;28;20497;-42
2022/01/17 06:50:37;;;;;;;28.05;6.55;;;6.10;99.90;;;;;;4990544;28;20061;-41
2022/01/17 06:53:04;;;;;;;35.53;5.82;;;6.10;99.90;;;;;;4982050;28;20054;-40
2022/01/17 06:55:31;;;;;;;31.88;6.03;;;6.10;99.90;;;;;;4988981;28;20046;-40
2022/01/17 06:57:58;;;;;;;30.75;5.85;;;6.10;99.90;;;;;;4965627;28;20055;-41
2022/01/17 07:00:24;;;;;;;35.05;6.85;;;6.10;99.90;;;;;;4986573;28;20414;-41
2022/01/17 07:02:51;;;;;;;31.30;6.03;;;6.20;99.90;;;;;;4972682;28;20051;-42
2022/01/17 07:05:18;;;;;;;32.78;7.15;;;6.20;99.90;;;;;;4991616;28;20129;-40
2022/01/17 07:07:46;;;;;;;31.80;6.78;;;6.20;99.90;;;;;;4991422;28;20465;-43
2022/01/17 07:10:13;;;;;;;39.30;6.35;;;6.20;99.90;;;;;;4989248;28;20052;-42
2022/01/17 07:12:39;;;;;;;33.42;7.65;;;6.20;99.90;;;;;;4989605;28;20068;-42
2022/01/17 07:15:06;;;;;;;32.88;6.80;;;6.20;99.90;;;;;;4988994;28;20064;-41
2022/01/17 07:17:33;;;;;;;33.58;6.03;;;6.20;99.90;;;;;;4984798;28;20057;-43
2022/01/17 07:20:00;;;;;;;31.10;6.22;;;6.30;99.90;;;;;;4990530;28;20057;-43
2022/01/17 07:22:27;;;;;;;39.97;6.72;;;6.30;99.90;;;;;;4989599;28;20073;-43
2022/01/17 07:24:56;;;;;;;33.42;6.63;;;6.30;99.90;;;;;;4989022;28;20137;-44
2022/01/17 07:27:24;;;;;;;39.33;6.90;;;6.30;99.90;;;;;;4985922;28;20074;-43
2022/01/17 07:29:50;;;;;;;30.85;6.28;;;6.30;99.90;;;;;;4988238;28;20043;-43
2022/01/17 07:32:17;;;;;;;40.92;6.80;;;6.40;99.90;;;;;;4993489;28;20054;-42
2022/01/17 07:34:44;;;;;;;39.55;7.07;;;6.40;99.90;;;;;;4995535;28;20047;-42
2022/01/17 07:37:10;;;;;;;32.17;5.50;;;6.40;99.90;;;;;;4995040;28;20122;-43
2022/01/17 07:39:37;;;;;;;37.53;6.13;;;6.50;99.90;;;;;;4994141;28;20049;-41
2022/01/17 07:42:07;;;;;;;38.47;6.13;;;6.40;99.90;;;;;;4994474;28;20475;-43
2022/01/17 07:44:34;;;;;;;41.03;6.63;;;6.40;99.90;;;;;;4994355;28;20038;-42
2022/01/17 07:47:02;;;;;;;35.17;5.90;;;6.40;99.90;;;;;;4995213;28;20509;-41
2022/01/17 07:49:29;;;;;;;32.65;6.18;;;6.40;99.90;;;;;;4993857;28;20061;-41
2022/01/17 07:51:59;;;;;;;32.90;5.55;;;6.40;99.90;;;;;;4994429;28;20050;-44
2022/01/17 07:54:26;;;;;;;47.42;6.65;;;6.40;99.90;;;;;;4988219;28;20061;-43
2022/01/17 07:56:53;;;;;;;32.65;6.32;;;6.50;99.90;;;;;;4994565;28;20049;-43
2022/01/17 07:59:21;;;;;;;42.17;6.35;;;6.50;99.90;;;;;;4994139;28;20054;-41
2022/01/17 08:01:47;;;;;;;37.53;5.25;;;6.50;99.90;;;;;;4994111;28;20046;-41
2022/01/17 08:04:14;;;;;;;43.05;7.75;;;6.50;99.90;;;;;;4993778;28;20487;-44
2022/01/17 08:06:41;;;;;;;47.10;6.50;;;6.50;99.90;;;;;;4994309;28;20069;-43
2022/01/17 08:09:09;;;;;;;35.67;5.00;;;6.50;99.90;;;;;;4993727;28;20406;-43
2022/01/17 08:11:36;;;;;;;42.88;6.25;;;6.50;99.90;;;;;;4994934;28;20042;-43
2022/01/17 08:14:03;;;;;;;34.05;5.07;;;6.50;99.90;;;;;;4995067;28;20409;-42
2022/01/17 08:16:31;;;;;;;44.55;6.40;;;6.60;99.90;;;;;;4995136;28;20055;-42
2022/01/17 08:18:57;;;;;;;39.92;6.20;;;6.60;99.90;;;;;;4995616;28;20487;-43
2022/01/17 08:21:24;;;;;;;31.90;4.72;;;6.60;99.90;;;;;;4995072;28;20046;-43
2022/01/17 08:23:52;;;;;;;30.00;5.13;;;6.60;99.90;;;;;;4995150;28;20056;-42
2022/01/17 08:26:19;;;;;;;43.08;5.80;;;6.60;99.90;;;;;;4994105;28;20047;-42
2022/01/17 08:28:46;;;;;;;45.20;4.97;;;6.60;99.90;;;;;;4995376;28;20042;-44
2022/01/17 08:31:12;;;;;;;51.95;5.80;;;6.70;99.90;;;;;;4994985;28;20409;-43
2022/01/17 08:33:41;;;;;;;36.22;5.32;;;6.70;99.90;;;;;;4994387;28;20050;-42
2022/01/17 08:36:07;;;;;;;33.15;5.15;;;6.70;99.90;;;;;;4995667;28;20125;-42
2022/01/17 08:38:34;;;;;;;48.55;5.93;;;6.70;99.90;;;;;;4986526;28;20487;-44
2022/01/17 08:41:01;;;;;;;45.75;5.15;;;6.70;99.90;;;;;;4994057;28;20491;-44
2022/01/17 08:43:28;;;;;;;49.53;6.07;;;6.70;99.90;;;;;;4992560;28;20054;-42
2022/01/17 08:45:55;;;;;;;34.45;4.70;;;6.80;99.90;;;;;;4993435;28;20569;-43
2022/01/17 08:48:22;;;;;;;39.95;5.18;;;6.80;99.90;;;;;;4993405;28;20133;-42
2022/01/17 08:50:51;;;;;;;40.55;5.03;;;6.80;99.90;;;;;;4994603;28;20380;-42
2022/01/17 08:53:17;;;;;;;41.72;5.00;;;6.90;99.90;;;;;;4993811;28;20410;-43
2022/01/17 08:55:45;;;;;;;42.90;5.10;;;6.90;99.90;;;;;;4995042;28;20085;-43
2022/01/17 08:58:12;;;;;;;48.50;5.57;;;6.90;99.90;;;;;;4994102;28;20105;-42
2022/01/17 09:00:38;;;;;;;49.15;5.43;;;6.90;99.90;;;;;;4994430;28;20038;-42
2022/01/17 09:03:05;;;;;;;52.03;5.63;;;7.00;99.90;;;;;;5009584;28;20133;-42
2022/01/17 09:05:32;;;;;;;42.38;5.45;;;7.00;99.90;;;;;;4993269;28;20050;-42
2022/01/17 09:08:00;;;;;;;47.60;6.22;;;7.00;99.90;;;;;;4994725;28;20053;-41
2022/01/17 09:10:28;;;;;;;46.58;6.38;;;7.10;99.90;;;;;;4994168;28;20073;-43
2022/01/17 09:12:56;;;;;;;43.03;5.97;;;7.00;99.90;;;;;;4993773;28;20475;-41
2022/01/17 09:15:23;;;;;;;48.03;6.45;;;7.00;99.90;;;;;;4992155;28;20106;-42
2022/01/17 09:17:50;;;;;;;46.17;5.93;;;7.10;99.90;;;;;;4993687;28;20129;-42
2022/01/17 09:20:17;;;;;;;42.35;5.22;;;7.10;99.90;;;;;;4992694;28;20058;-43
2022/01/17 09:22:43;;;;;;;36.35;5.93;;;7.10;99.90;;;;;;4992162;28;20064;-42
2022/01/17 09:25:12;;;;;;;47.20;6.22;;;7.10;99.90;;;;;;4994409;28;20046;-41
2022/01/17 09:27:38;;;;;;;39.92;5.63;;;7.20;99.90;;;;;;4993644;28;20105;-42
2022/01/17 09:30:07;;;;;;;45.03;6.30;;;7.10;99.90;;;;;;4993209;28;20089;-42
2022/01/17 09:32:34;;;;;;;54.25;6.57;;;7.20;99.90;;;;;;4994147;28;20060;-42
2022/01/17 09:35:00;;;;;;;42.17;5.60;;;7.20;99.90;;;;;;4992259;28;20126;-42
2022/01/17 09:37:27;;;;;;;50.85;6.55;;;7.20;99.90;;;;;;4992753;28;20086;-41
2022/01/17 09:39:54;;;;;;;45.78;5.03;;;7.30;99.90;;;;;;4992647;28;20056;-42
2022/01/17 09:42:22;;;;;;;49.00;6.15;;;7.30;99.90;;;;;;4990931;28;20494;-42
2022/01/17 09:44:48;;;;;;;47.30;5.53;;;7.40;99.90;;;;;;4993766;28;20058;-42
2022/01/17 09:47:17;;;;;;;46.55;5.82;;;7.40;99.90;;;;;;4992201;28;20140;-43
2022/01/17 09:49:50;;;;;;;45.63;5.47;;;7.40;99.90;;;;;;4993726;28;20054;-43
2022/01/17 09:52:34;;;;;;;39.65;4.88;;;7.50;99.90;;;;;;4988664;28;20414;-42
2022/01/17 09:55:03;;;;;;;45.53;5.55;;;7.50;99.90;;;;;;4992597;28;20112;-43
2022/01/17 09:57:32;;;;;;;42.95;5.32;;;7.60;99.90;;;;;;4993964;28;20060;-43
2022/01/17 09:59:58;;;;;;;41.17;5.07;;;7.70;99.90;;;;;;4992770;28;20054;-42
2022/01/17 10:02:25;;;;;;;41.75;6.65;;;7.70;99.90;;;;;;4993479;28;20048;-43
2022/01/17 10:04:52;;;;;;;38.80;5.22;;;7.70;99.90;;;;;;4992123;28;20046;-42
2022/01/17 10:07:18;;;;;;;48.40;6.13;;;7.70;99.90;;;;;;4992307;28;20494;-42
2022/01/17 10:09:54;;;;;;;48.90;5.95;;;7.80;99.90;;;;;;4992360;28;20043;-42
2022/01/17 10:12:21;;;;;;;49.80;6.60;;;7.90;99.90;;;;;;4993172;28;20058;-43
2022/01/17 10:14:58;;;;;;;45.65;6.35;;;8.00;99.90;;;;;;4991594;28;20053;-42
2022/01/17 10:17:25;;;;;;;39.50;5.63;;;8.00;99.90;;;;;;4987445;28;20046;-43
2022/01/17 10:19:59;;;;;;;41.58;6.20;;;8.20;99.90;;;;;;4992134;28;20057;-44
2022/01/17 10:22:34;;;;;;;44.40;5.55;;;8.20;99.90;;;;;;4991323;28;20038;-43
2022/01/17 10:25:19;;;;;;;43.83;5.78;;;8.20;99.90;;;;;;4989935;28;20418;-43
2022/01/17 10:28:10;;;;;;;45.40;5.93;;;8.30;99.90;;;;;;4987271;28;20251;-43
2022/01/17 10:31:03;;;;;;;46.88;5.68;;;8.40;99.90;;;;;;4977035;28;20054;-42
2022/01/17 10:36:17;;;;;;;47.38;6.80;;;8.50;99.90;;;;;;4987300;28;20462;-43
2022/01/17 10:38:44;;;;;;;42.60;5.90;;;8.50;99.90;;;;;;4998056;28;20131;-42
2022/01/17 10:41:13;;;;;;;49.28;5.75;;;8.60;99.90;;;;;;4990870;28;20050;-44
2022/01/17 10:43:42;;;;;;;42.78;6.72;;;8.70;99.90;;;;;;4991014;28;20057;-43
2022/01/17 10:46:10;;;;;;;56.42;6.93;;;8.70;99.90;;;;;;4991455;28;20082;-42
2022/01/17 10:48:38;;;;;;;47.10;6.38;;;8.70;99.90;;;;;;4992477;28;20046;-42
2022/01/17 10:51:05;;;;;;;44.67;6.40;;;8.80;99.90;;;;;;4991218;28;20046;-44
2022/01/17 10:53:32;;;;;;;42.67;5.85;;;8.80;99.90;;;;;;4991346;28;20125;-44
2022/01/17 10:56:00;;;;;;;40.45;6.47;;;8.90;99.90;;;;;;4991066;28;20078;-42
2022/01/17 10:58:29;;;;;;;44.97;6.78;;;8.90;99.90;;;;;;4990750;28;20046;-42
2022/01/17 11:00:56;;;;;;;46.08;6.75;;;9.00;99.90;;;;;;4990013;28;20050;-43
2022/01/17 11:03:26;;;;;;;51.25;6.70;;;9.00;99.90;;;;;;4990169;28;20053;-42
2022/01/17 11:05:54;;;;;;;53.15;6.50;;;9.00;99.90;;;;;;4989825;28;20050;-43
2022/01/17 11:08:23;;;;;;;57.20;8.48;;;9.10;99.90;;;;;;4990273;28;20052;-44
2022/01/17 11:10:52;;;;;;;54.85;7.75;;;9.00;99.90;;;;;;4991180;28;20057;-42
2022/01/17 11:13:20;;;;;;;55.92;7.75;;;9.10;99.90;;;;;;4991118;28;20061;-45
2022/01/17 11:15:49;;;;;;;49.17;6.30;;;9.10;99.90;;;;;;4989700;28;20046;-43
2022/01/17 11:18:20;;;;;;;56.83;7.07;;;9.10;99.90;;;;;;4990822;28;20061;-43
2022/01/17 11:20:48;;;;;;;49.65;7.03;;;9.10;99.90;;;;;;4989289;28;20129;-42
2022/01/17 11:23:15;;;;;;;53.63;7.38;;;9.10;99.90;;;;;;4990424;28;20054;-44
2022/01/17 11:25:44;;;;;;;51.70;8.10;;;9.10;99.90;;;;;;4989696;28;20050;-43
2022/01/17 11:28:11;;;;;;;64.32;8.95;;;9.10;99.90;;;;;;4989586;28;20261;-42
2022/01/17 11:30:39;;;;;;;54.90;7.50;;;9.10;99.90;;;;;;4990303;28;20480;-43
2022/01/17 11:33:08;;;;;;;59.03;7.65;;;9.20;99.90;;;;;;4989857;28;20046;-42
2022/01/17 11:35:37;;;;;;;64.95;8.90;;;9.20;99.90;;;;;;4989854;28;20046;-42
2022/01/17 11:38:05;;;;;;;61.63;8.85;;;9.30;99.90;;;;;;4990333;28;20490;-43
2022/01/17 11:40:33;;;;;;;52.60;7.60;;;9.30;99.90;;;;;;4991096;28;20057;-44
2022/01/17 11:42:59;;;;;;;56.92;8.38;;;9.40;99.90;;;;;;4990969;28;20137;-45
2022/01/17 11:45:37;;;;;;;59.78;8.00;;;9.50;99.90;;;;;;4991845;28;20050;-44
2022/01/17 11:48:08;;;;;;;62.53;8.43;;;9.50;99.90;;;;;;4990036;28;20101;-44
2022/01/17 11:50:49;;;;;;;57.42;8.30;;;9.60;99.90;;;;;;4991504;28;20070;-42
2022/01/17 11:53:45;;;;;;;56.53;7.73;;;9.50;99.90;;;;;;4986006;28;20050;-44
2022/01/17 11:56:16;;;;;;;48.30;8.40;;;9.60;99.90;;;;;;4977964;28;20142;-44
2022/01/17 11:58:44;;;;;;;66.05;8.10;;;9.70;99.90;;;;;;4991380;28;20405;-43
2022/01/17 12:01:20;;;;;;;60.58;8.15;;;9.80;99.90;;;;;;4990873;28;20505;-45
2022/01/17 12:03:48;;;;;;;54.72;8.18;;;9.90;99.90;;;;;;4990091;28;20054;-45
2022/01/17 12:06:25;;;;;;;58.50;8.63;;;9.90;99.90;;;;;;4990481;28;20078;-44
2022/01/17 12:09:17;;;;;;;61.47;8.43;;;10.10;99.90;;;;;;4991583;28;20056;-43
2022/01/17 12:11:43;;;;;;;52.70;8.05;;;10.10;99.90;;;;;;4991974;28;20043;-45
2022/01/17 12:14:29;;;;;;;57.17;9.13;;;10.20;99.90;;;;;;4989716;28;20047;-43
2022/01/17 12:17:11;;;;;;;52.50;8.23;;;10.30;99.90;;;;;;4990199;28;20050;-44
2022/01/17 12:19:56;;;;;;;45.38;8.00;;;10.20;99.90;;;;;;4987737;28;20052;-44
2022/01/17 12:22:22;;;;;;;46.03;6.85;;;10.20;99.90;;;;;;4994755;28;20582;-45
2022/01/17 12:24:50;;;;;;;52.15;7.72;;;10.20;99.90;;;;;;4995243;28;20430;-46
2022/01/17 12:27:20;;;;;;;45.10;8.23;;;10.10;99.90;;;;;;4994345;28;20046;-48
2022/01/17 12:29:56;;;;;;;55.00;7.40;;;10.10;99.90;;;;;;4992814;28;20113;-44
2022/01/17 12:32:51;;;;;;;51.88;8.52;;;10.10;99.90;;;;;;4993209;28;20062;-44
2022/01/17 12:35:29;;;;;;;53.70;8.20;;;10.00;99.90;;;;;;4989654;28;20054;-44
2022/01/17 12:38:04;;;;;;;60.67;8.35;;;10.10;99.90;;;;;;4993922;28;20050;-44
2022/01/17 12:40:33;;;;;;;50.22;8.07;;;10.10;99.90;;;;;;4993456;28;20045;-44
2022/01/17 12:43:01;;;;;;;56.45;8.85;;;10.20;99.90;;;;;;4991286;28;20052;-43
2022/01/17 12:45:30;;;;;;;49.67;7.78;;;10.30;99.90;;;;;;4990464;28;20051;-44
2022/01/17 12:47:57;;;;;;;48.78;8.48;;;10.30;99.90;;;;;;4991654;28;20501;-45
2022/01/17 12:50:26;;;;;;;55.05;8.38;;;10.40;99.90;;;;;;5003263;28;20057;-45
2022/01/17 12:52:53;;;;;;;51.13;7.55;;;10.40;99.90;;;;;;4992323;28;20054;-43
2022/01/17 12:55:20;;;;;;;51.90;7.78;;;10.40;99.90;;;;;;4992581;28;20042;-44
2022/01/17 12:57:48;;;;;;;49.17;7.10;;;10.40;99.90;;;;;;4989514;28;20042;-45
2022/01/17 13:00:19;;;;;;;58.78;8.40;;;10.30;99.90;;;;;;4992440;28;20046;-44